sensor_id;sensor_type;location;lat;lon;timestamp;temperature;humidity
49242;DHT22;35079;52.704;13.814;2023-01-23T00:00:00;1.90;99.90
49242;DHT22;35079;52.704;13.814;2023-01-23T00:02:26;2.00;99.90
49242;DHT22;35079;52.704;13.814;2023-01-23T00:04:51;1.90;99.90
49242;DHT22;35079;52.704;13.814;2023-01-23T00:07:17;1.90;99.90
49242;DHT22;35079;52.704;13.814;2023-01-23T00:09:42;2.00;99.90
49242;DHT22;35079;52.704;13.814;2023-01-23T00:12:08;2.00;99.90
49242;DHT22;35079;52.704;13.814;2023-01-23T00:14:34;1.80;99.90
49242;DHT22;35079;52.704;13.814;2023-01-23T00:16:59;2.00;99.90
49242;DHT22;35079;52.704;13.814;2023-01-23T00:19:28;1.90;99.90
49242;DHT22;35079;52.704;13.814;2023-01-23T00:22:09;2.00;99.90
49242;DHT22;35079;52.704;13.814;2023-01-23T00:24:35;2.00;99.90
49242;DHT22;35079;52.704;13.814;2023-01-23T00:27:01;2.00;99.90
49242;DHT22;35079;52.704;13.814;2023-01-23T00:29:26;1.90;99.90
49242;DHT22;35079;52.704;13.814;2023-01-23T00:31:52;1.80;99.90
49242;DHT22;35079;52.704;13.814;2023-01-23T00:34:18;1.90;99.90
49242;DHT22;35079;52.704;13.814;2023-01-23T00:36:44;1.90;99.90
49242;DHT22;35079;52.704;13.814;2023-01-23T00:39:19;2.10;99.90
49242;DHT22;35079;52.704;13.814;2023-01-23T00:41:46;2.00;99.90
49242;DHT22;35079;52.704;13.814;2023-01-23T00:44:12;2.00;99.90
49242;DHT22;35079;52.704;13.814;2023-01-23T00:46:38;2.00;99.90
49242;DHT22;35079;52.704;13.814;2023-01-23T00:49:04;2.10;99.90
49242;DHT22;35079;52.704;13.814;2023-01-23T00:51:30;2.00;99.90
49242;DHT22;35079;52.704;13.814;2023-01-23T00:53:55;2.10;99.90
49242;DHT22;35079;52.704;13.814;2023-01-23T00:56:21;2.10;99.90
49242;DHT22;35079;52.704;13.814;2023-01-23T00:58:47;2.00;99.90
49242;DHT22;35079;52.704;13.814;2023-01-23T01:01:14;2.10;99.90
49242;DHT22;35079;52.704;13.814;2023-01-23T01:03:40;1.90;99.90
49242;DHT22;35079;52.704;13.814;2023-01-23T01:06:06;2.00;99.90
49242;DHT22;35079;52.704;13.814;2023-01-23T01:08:32;2.10;99.90
49242;DHT22;35079;52.704;13.814;2023-01-23T01:10:58;2.00;99.90
49242;DHT22;35079;52.704;13.814;2023-01-23T01:13:23;1.90;99.90
49242;DHT22;35079;52.704;13.814;2023-01-23T01:15:51;1.90;99.90
49242;DHT22;35079;52.704;13.814;2023-01-23T01:18:17;1.80;99.90
49242;DHT22;35079;52.704;13.814;2023-01-23T01:20:44;2.00;99.90
49242;DHT22;35079;52.704;13.814;2023-01-23T01:23:10;1.80;99.90
49242;DHT22;35079;52.704;13.814;2023-01-23T01:25:37;1.80;99.90
49242;DHT22;35079;52.704;13.814;2023-01-23T01:28:03;1.90;99.90
49242;DHT22;35079;52.704;13.814;2023-01-23T01:30:36;1.90;99.90
49242;DHT22;35079;52.704;13.814;2023-01-23T01:33:01;1.90;99.90
49242;DHT22;35079;52.704;13.814;2023-01-23T01:35:27;1.90;99.90
49242;DHT22;35079;52.704;13.814;2023-01-23T01:37:53;1.90;99.90
49242;DHT22;35079;52.704;13.814;2023-01-23T01:40:35;1.90;99.90
49242;DHT22;35079;52.704;13.814;2023-01-23T01:43:04;1.90;99.90
49242;DHT22;35079;52.704;13.814;2023-01-23T01:48:43;1.90;99.90
49242;DHT22;35079;52.704;13.814;2023-01-23T01:51:21;1.90;99.90
49242;DHT22;35079;52.704;13.814;2023-01-23T01:53:53;1.90;99.90
49242;DHT22;35079;52.704;13.814;2023-01-23T01:56:20;1.90;99.90
49242;DHT22;35079;52.704;13.814;2023-01-23T01:58:49;1.80;99.90
49242;DHT22;35079;52.704;13.814;2023-01-23T02:01:16;1.80;99.90
49242;DHT22;35079;52.704;13.814;2023-01-23T02:03:43;1.80;99.90
49242;DHT22;35079;52.704;13.814;2023-01-23T02:06:09;2.00;99.90
49242;DHT22;35079;52.704;13.814;2023-01-23T02:08:46;1.80;99.90
49242;DHT22;35079;52.704;13.814;2023-01-23T02:11:13;1.80;99.90
49242;DHT22;35079;52.704;13.814;2023-01-23T02:13:41;2.00;99.90
49242;DHT22;35079;52.704;13.814;2023-01-23T02:16:11;1.90;99.90
49242;DHT22;35079;52.704;13.814;2023-01-23T02:18:40;1.90;99.90
49242;DHT22;35079;52.704;13.814;2023-01-23T02:21:10;1.90;99.90
49242;DHT22;35079;52.704;13.814;2023-01-23T02:26:29;1.90;99.90
49242;DHT22;35079;52.704;13.814;2023-01-23T02:28:57;2.00;99.90
49242;DHT22;35079;52.704;13.814;2023-01-23T02:31:24;1.90;99.90
49242;DHT22;35079;52.704;13.814;2023-01-23T02:33:52;2.10;99.90
49242;DHT22;35079;52.704;13.814;2023-01-23T02:36:21;2.00;99.90
49242;DHT22;35079;52.704;13.814;2023-01-23T02:39:08;2.00;99.90
49242;DHT22;35079;52.704;13.814;2023-01-23T02:41:36;2.10;99.90
49242;DHT22;35079;52.704;13.814;2023-01-23T02:44:08;1.90;99.90
49242;DHT22;35079;52.704;13.814;2023-01-23T02:46:34;2.00;99.90
49242;DHT22;35079;52.704;13.814;2023-01-23T02:49:00;1.90;99.90
49242;DHT22;35079;52.704;13.814;2023-01-23T02:51:26;1.90;99.90
49242;DHT22;35079;52.704;13.814;2023-01-23T02:53:52;2.10;99.90
49242;DHT22;35079;52.704;13.814;2023-01-23T02:56:18;1.90;99.90
49242;DHT22;35079;52.704;13.814;2023-01-23T02:58:44;2.10;99.90
49242;DHT22;35079;52.704;13.814;2023-01-23T03:01:28;1.90;99.90
49242;DHT22;35079;52.704;13.814;2023-01-23T03:03:54;1.90;99.90
49242;DHT22;35079;52.704;13.814;2023-01-23T03:06:23;2.00;99.90
49242;DHT22;35079;52.704;13.814;2023-01-23T03:08:48;1.90;99.90
49242;DHT22;35079;52.704;13.814;2023-01-23T03:11:16;2.00;99.90
49242;DHT22;35079;52.704;13.814;2023-01-23T03:13:43;1.80;99.90
49242;DHT22;35079;52.704;13.814;2023-01-23T03:16:09;1.80;99.90
49242;DHT22;35079;52.704;13.814;2023-01-23T03:18:35;2.10;99.90
49242;DHT22;35079;52.704;13.814;2023-01-23T03:21:02;1.80;99.90
49242;DHT22;35079;52.704;13.814;2023-01-23T03:23:28;2.10;99.90
49242;DHT22;35079;52.704;13.814;2023-01-23T03:25:54;2.10;99.90
49242;DHT22;35079;52.704;13.814;2023-01-23T03:28:24;2.10;99.90
49242;DHT22;35079;52.704;13.814;2023-01-23T03:31:09;2.00;99.90
49242;DHT22;35079;52.704;13.814;2023-01-23T03:33:35;1.90;99.90
49242;DHT22;35079;52.704;13.814;2023-01-23T03:36:04;1.90;99.90
49242;DHT22;35079;52.704;13.814;2023-01-23T03:38:30;1.90;99.90
49242;DHT22;35079;52.704;13.814;2023-01-23T03:40:55;1.90;99.90
49242;DHT22;35079;52.704;13.814;2023-01-23T03:43:39;1.90;99.90
49242;DHT22;35079;52.704;13.814;2023-01-23T03:46:05;2.00;99.90
49242;DHT22;35079;52.704;13.814;2023-01-23T03:48:30;1.80;99.90
49242;DHT22;35079;52.704;13.814;2023-01-23T03:50:56;1.90;99.90
49242;DHT22;35079;52.704;13.814;2023-01-23T03:53:22;1.90;99.90
49242;DHT22;35079;52.704;13.814;2023-01-23T03:55:50;1.90;99.90
49242;DHT22;35079;52.704;13.814;2023-01-23T03:58:15;1.90;99.90
49242;DHT22;35079;52.704;13.814;2023-01-23T04:00:41;1.90;99.90
49242;DHT22;35079;52.704;13.814;2023-01-23T04:03:07;2.00;99.90
49242;DHT22;35079;52.704;13.814;2023-01-23T04:05:33;1.80;99.90
49242;DHT22;35079;52.704;13.814;2023-01-23T04:07:59;1.80;99.90
49242;DHT22;35079;52.704;13.814;2023-01-23T04:10:24;1.80;99.90
49242;DHT22;35079;52.704;13.814;2023-01-23T04:12:50;1.80;99.90
49242;DHT22;35079;52.704;13.814;2023-01-23T04:15:16;1.80;99.90
49242;DHT22;35079;52.704;13.814;2023-01-23T04:17:42;1.80;99.90
49242;DHT22;35079;52.704;13.814;2023-01-23T04:20:09;1.60;99.90
49242;DHT22;35079;52.704;13.814;2023-01-23T04:22:34;1.60;99.90
49242;DHT22;35079;52.704;13.814;2023-01-23T04:25:00;1.60;99.90
49242;DHT22;35079;52.704;13.814;2023-01-23T04:27:26;1.60;99.90
49242;DHT22;35079;52.704;13.814;2023-01-23T04:29:51;1.80;99.90
49242;DHT22;35079;52.704;13.814;2023-01-23T04:32:17;1.70;99.90
49242;DHT22;35079;52.704;13.814;2023-01-23T04:34:42;1.70;99.90
49242;DHT22;35079;52.704;13.814;2023-01-23T04:37:08;1.80;99.90
49242;DHT22;35079;52.704;13.814;2023-01-23T04:39:34;1.80;99.90
49242;DHT22;35079;52.704;13.814;2023-01-23T04:41:59;1.90;99.90
49242;DHT22;35079;52.704;13.814;2023-01-23T04:44:25;1.90;99.90
49242;DHT22;35079;52.704;13.814;2023-01-23T04:46:52;2.00;99.90
49242;DHT22;35079;52.704;13.814;2023-01-23T04:49:19;1.90;99.90
49242;DHT22;35079;52.704;13.814;2023-01-23T04:51:46;1.70;99.90
49242;DHT22;35079;52.704;13.814;2023-01-23T04:54:13;1.80;99.90
49242;DHT22;35079;52.704;13.814;2023-01-23T04:56:39;1.80;99.90
49242;DHT22;35079;52.704;13.814;2023-01-23T04:59:04;1.80;99.90
49242;DHT22;35079;52.704;13.814;2023-01-23T05:01:30;1.90;99.90
49242;DHT22;35079;52.704;13.814;2023-01-23T05:03:56;1.90;99.90
49242;DHT22;35079;52.704;13.814;2023-01-23T05:06:22;1.90;99.90
49242;DHT22;35079;52.704;13.814;2023-01-23T05:08:47;1.80;99.90
49242;DHT22;35079;52.704;13.814;2023-01-23T05:11:13;1.80;99.90
49242;DHT22;35079;52.704;13.814;2023-01-23T05:13:39;1.90;99.90
49242;DHT22;35079;52.704;13.814;2023-01-23T05:16:04;1.80;99.90
49242;DHT22;35079;52.704;13.814;2023-01-23T05:18:30;1.70;99.90
49242;DHT22;35079;52.704;13.814;2023-01-23T05:20:56;1.90;99.90
49242;DHT22;35079;52.704;13.814;2023-01-23T05:23:22;1.80;99.90
49242;DHT22;35079;52.704;13.814;2023-01-23T05:25:47;1.80;99.90
49242;DHT22;35079;52.704;13.814;2023-01-23T05:28:13;1.80;99.90
49242;DHT22;35079;52.704;13.814;2023-01-23T05:30:39;2.00;99.90
49242;DHT22;35079;52.704;13.814;2023-01-23T05:33:04;2.00;99.90
49242;DHT22;35079;52.704;13.814;2023-01-23T05:35:30;1.90;99.90
49242;DHT22;35079;52.704;13.814;2023-01-23T05:37:56;1.70;99.90
49242;DHT22;35079;52.704;13.814;2023-01-23T05:40:22;1.80;99.90
49242;DHT22;35079;52.704;13.814;2023-01-23T05:42:48;1.90;99.90
49242;DHT22;35079;52.704;13.814;2023-01-23T05:45:14;1.80;99.90
49242;DHT22;35079;52.704;13.814;2023-01-23T05:47:41;1.80;99.90
49242;DHT22;35079;52.704;13.814;2023-01-23T05:50:07;1.70;99.90
49242;DHT22;35079;52.704;13.814;2023-01-23T05:52:34;1.80;99.90
49242;DHT22;35079;52.704;13.814;2023-01-23T05:55:00;1.90;99.90
49242;DHT22;35079;52.704;13.814;2023-01-23T05:57:26;1.90;99.90
49242;DHT22;35079;52.704;13.814;2023-01-23T05:59:51;1.80;99.90
49242;DHT22;35079;52.704;13.814;2023-01-23T06:02:17;2.00;99.90
49242;DHT22;35079;52.704;13.814;2023-01-23T06:04:45;1.90;99.90
49242;DHT22;35079;52.704;13.814;2023-01-23T06:07:16;1.90;99.90
49242;DHT22;35079;52.704;13.814;2023-01-23T06:09:42;1.80;99.90
49242;DHT22;35079;52.704;13.814;2023-01-23T06:12:08;1.90;99.90
49242;DHT22;35079;52.704;13.814;2023-01-23T06:14:34;1.80;99.90
49242;DHT22;35079;52.704;13.814;2023-01-23T06:17:00;2.00;99.90
49242;DHT22;35079;52.704;13.814;2023-01-23T06:19:25;1.80;99.90
49242;DHT22;35079;52.704;13.814;2023-01-23T06:21:51;2.00;99.90
49242;DHT22;35079;52.704;13.814;2023-01-23T06:24:17;2.00;99.90
49242;DHT22;35079;52.704;13.814;2023-01-23T06:26:42;1.80;99.90
49242;DHT22;35079;52.704;13.814;2023-01-23T06:29:08;1.70;99.90
49242;DHT22;35079;52.704;13.814;2023-01-23T06:31:33;1.70;99.90
49242;DHT22;35079;52.704;13.814;2023-01-23T06:33:59;1.70;99.90
49242;DHT22;35079;52.704;13.814;2023-01-23T06:36:25;1.90;99.90
49242;DHT22;35079;52.704;13.814;2023-01-23T06:38:51;1.80;99.90
49242;DHT22;35079;52.704;13.814;2023-01-23T06:41:17;1.80;99.90
49242;DHT22;35079;52.704;13.814;2023-01-23T06:43:43;1.80;99.90
49242;DHT22;35079;52.704;13.814;2023-01-23T06:46:09;1.90;99.90
49242;DHT22;35079;52.704;13.814;2023-01-23T06:48:36;1.90;99.90
49242;DHT22;35079;52.704;13.814;2023-01-23T06:51:02;1.80;99.90
49242;DHT22;35079;52.704;13.814;2023-01-23T06:53:28;1.80;99.90
49242;DHT22;35079;52.704;13.814;2023-01-23T06:56:05;1.80;99.90
49242;DHT22;35079;52.704;13.814;2023-01-23T06:58:31;1.80;99.90
49242;DHT22;35079;52.704;13.814;2023-01-23T07:00:57;1.80;99.90
49242;DHT22;35079;52.704;13.814;2023-01-23T07:03:23;1.90;99.90
49242;DHT22;35079;52.704;13.814;2023-01-23T07:05:49;1.60;99.90
49242;DHT22;35079;52.704;13.814;2023-01-23T07:08:15;1.60;99.90
49242;DHT22;35079;52.704;13.814;2023-01-23T07:10:41;1.70;99.90
49242;DHT22;35079;52.704;13.814;2023-01-23T07:13:09;1.70;99.90
49242;DHT22;35079;52.704;13.814;2023-01-23T07:15:35;1.90;99.90
49242;DHT22;35079;52.704;13.814;2023-01-23T07:18:02;1.80;99.90
49242;DHT22;35079;52.704;13.814;2023-01-23T07:20:28;1.80;99.90
49242;DHT22;35079;52.704;13.814;2023-01-23T07:22:54;1.90;99.90
49242;DHT22;35079;52.704;13.814;2023-01-23T07:25:21;1.70;99.90
49242;DHT22;35079;52.704;13.814;2023-01-23T07:27:47;1.90;99.90
49242;DHT22;35079;52.704;13.814;2023-01-23T07:30:14;2.00;99.90
49242;DHT22;35079;52.704;13.814;2023-01-23T07:32:39;1.90;99.90
49242;DHT22;35079;52.704;13.814;2023-01-23T07:35:06;1.90;99.90
49242;DHT22;35079;52.704;13.814;2023-01-23T07:37:32;1.80;99.90
49242;DHT22;35079;52.704;13.814;2023-01-23T07:39:58;1.90;99.90
49242;DHT22;35079;52.704;13.814;2023-01-23T07:42:23;1.80;99.90
49242;DHT22;35079;52.704;13.814;2023-01-23T07:44:49;1.90;99.90
49242;DHT22;35079;52.704;13.814;2023-01-23T07:47:15;1.80;99.90
49242;DHT22;35079;52.704;13.814;2023-01-23T07:49:40;1.80;99.90
49242;DHT22;35079;52.704;13.814;2023-01-23T07:52:06;1.80;99.90
49242;DHT22;35079;52.704;13.814;2023-01-23T07:54:32;2.00;99.90
49242;DHT22;35079;52.704;13.814;2023-01-23T07:56:57;1.80;99.90
49242;DHT22;35079;52.704;13.814;2023-01-23T07:59:23;1.80;99.90
49242;DHT22;35079;52.704;13.814;2023-01-23T08:01:49;1.80;99.90
49242;DHT22;35079;52.704;13.814;2023-01-23T08:04:17;2.00;99.90
49242;DHT22;35079;52.704;13.814;2023-01-23T08:06:43;1.90;99.90
49242;DHT22;35079;52.704;13.814;2023-01-23T08:09:08;1.90;99.90
49242;DHT22;35079;52.704;13.814;2023-01-23T08:11:34;2.10;99.90
49242;DHT22;35079;52.704;13.814;2023-01-23T08:14:00;2.00;99.90
49242;DHT22;35079;52.704;13.814;2023-01-23T08:16:25;1.90;99.90
49242;DHT22;35079;52.704;13.814;2023-01-23T08:18:52;2.00;99.90
49242;DHT22;35079;52.704;13.814;2023-01-23T08:21:18;1.90;99.90
49242;DHT22;35079;52.704;13.814;2023-01-23T08:23:44;2.00;99.90
49242;DHT22;35079;52.704;13.814;2023-01-23T08:26:12;2.00;99.90
49242;DHT22;35079;52.704;13.814;2023-01-23T08:28:40;2.00;99.90
49242;DHT22;35079;52.704;13.814;2023-01-23T08:31:07;2.00;99.90
49242;DHT22;35079;52.704;13.814;2023-01-23T08:33:34;2.00;99.90
49242;DHT22;35079;52.704;13.814;2023-01-23T08:36:00;2.10;99.90
49242;DHT22;35079;52.704;13.814;2023-01-23T08:38:26;2.00;99.90
49242;DHT22;35079;52.704;13.814;2023-01-23T08:40:52;2.00;99.90
49242;DHT22;35079;52.704;13.814;2023-01-23T08:43:20;2.00;99.90
49242;DHT22;35079;52.704;13.814;2023-01-23T08:45:54;2.10;99.90
49242;DHT22;35079;52.704;13.814;2023-01-23T08:48:21;2.10;99.90
49242;DHT22;35079;52.704;13.814;2023-01-23T08:50:48;2.20;99.90
49242;DHT22;35079;52.704;13.814;2023-01-23T08:53:15;2.20;99.90
49242;DHT22;35079;52.704;13.814;2023-01-23T08:55:41;2.10;99.90
49242;DHT22;35079;52.704;13.814;2023-01-23T08:58:08;2.10;99.90
49242;DHT22;35079;52.704;13.814;2023-01-23T09:00:34;2.10;99.90
49242;DHT22;35079;52.704;13.814;2023-01-23T09:03:03;2.00;99.90
49242;DHT22;35079;52.704;13.814;2023-01-23T09:05:30;2.10;99.90
49242;DHT22;35079;52.704;13.814;2023-01-23T09:07:57;2.20;99.90
49242;DHT22;35079;52.704;13.814;2023-01-23T09:10:23;2.10;99.90
49242;DHT22;35079;52.704;13.814;2023-01-23T09:12:56;2.10;99.90
49242;DHT22;35079;52.704;13.814;2023-01-23T09:15:22;2.10;99.90
49242;DHT22;35079;52.704;13.814;2023-01-23T09:17:48;2.00;99.90
49242;DHT22;35079;52.704;13.814;2023-01-23T09:20:14;2.00;99.90
49242;DHT22;35079;52.704;13.814;2023-01-23T09:22:40;2.00;99.90
49242;DHT22;35079;52.704;13.814;2023-01-23T09:25:20;2.20;99.90
49242;DHT22;35079;52.704;13.814;2023-01-23T09:27:50;2.10;99.90
49242;DHT22;35079;52.704;13.814;2023-01-23T09:30:19;2.00;99.90
49242;DHT22;35079;52.704;13.814;2023-01-23T09:32:45;2.00;99.90
49242;DHT22;35079;52.704;13.814;2023-01-23T09:35:11;2.20;99.90
49242;DHT22;35079;52.704;13.814;2023-01-23T09:37:36;2.20;99.90
49242;DHT22;35079;52.704;13.814;2023-01-23T09:40:21;2.30;99.90
49242;DHT22;35079;52.704;13.814;2023-01-23T09:42:48;2.20;99.90
49242;DHT22;35079;52.704;13.814;2023-01-23T09:45:17;2.30;99.90
49242;DHT22;35079;52.704;13.814;2023-01-23T09:47:53;2.20;99.90
49242;DHT22;35079;52.704;13.814;2023-01-23T09:50:26;2.20;99.90
49242;DHT22;35079;52.704;13.814;2023-01-23T09:53:07;2.30;99.90
49242;DHT22;35079;52.704;13.814;2023-01-23T09:55:49;2.20;99.90
49242;DHT22;35079;52.704;13.814;2023-01-23T09:58:22;2.30;99.90
49242;DHT22;35079;52.704;13.814;2023-01-23T10:00:50;2.10;99.90
49242;DHT22;35079;52.704;13.814;2023-01-23T10:03:16;2.40;99.90
49242;DHT22;35079;52.704;13.814;2023-01-23T10:06:18;2.20;99.90
49242;DHT22;35079;52.704;13.814;2023-01-23T10:09:04;2.40;99.90
49242;DHT22;35079;52.704;13.814;2023-01-23T10:11:48;2.50;99.90
49242;DHT22;35079;52.704;13.814;2023-01-23T10:17:05;2.40;99.90
49242;DHT22;35079;52.704;13.814;2023-01-23T10:22:35;2.40;99.90
49242;DHT22;35079;52.704;13.814;2023-01-23T10:25:12;2.50;99.90
49242;DHT22;35079;52.704;13.814;2023-01-23T10:27:47;2.40;99.90
49242;DHT22;35079;52.704;13.814;2023-01-23T10:30:28;2.30;99.90
49242;DHT22;35079;52.704;13.814;2023-01-23T10:33:14;2.40;99.90
49242;DHT22;35079;52.704;13.814;2023-01-23T10:35:55;2.40;99.90
49242;DHT22;35079;52.704;13.814;2023-01-23T10:40:48;2.60;99.90
49242;DHT22;35079;52.704;13.814;2023-01-23T10:43:33;2.50;99.90
49242;DHT22;35079;52.704;13.814;2023-01-23T10:45:59;2.70;99.90
49242;DHT22;35079;52.704;13.814;2023-01-23T10:50:57;2.60;99.90
49242;DHT22;35079;52.704;13.814;2023-01-23T10:53:23;2.50;99.90
49242;DHT22;35079;52.704;13.814;2023-01-23T10:55:51;2.70;99.90
49242;DHT22;35079;52.704;13.814;2023-01-23T10:58:36;2.50;99.90
49242;DHT22;35079;52.704;13.814;2023-01-23T11:01:02;2.60;99.90
49242;DHT22;35079;52.704;13.814;2023-01-23T11:03:30;2.60;99.90
49242;DHT22;35079;52.704;13.814;2023-01-23T11:06:08;2.60;99.90
49242;DHT22;35079;52.704;13.814;2023-01-23T11:08:41;2.50;99.90
49242;DHT22;35079;52.704;13.814;2023-01-23T11:13:39;2.60;99.90
49242;DHT22;35079;52.704;13.814;2023-01-23T11:16:05;2.50;99.90
49242;DHT22;35079;52.704;13.814;2023-01-23T11:18:34;2.50;99.90
49242;DHT22;35079;52.704;13.814;2023-01-23T11:30:02;2.70;99.90
49242;DHT22;35079;52.704;13.814;2023-01-23T11:32:50;2.60;99.90
49242;DHT22;35079;52.704;13.814;2023-01-23T11:35:24;2.70;99.90
49242;DHT22;35079;52.704;13.814;2023-01-23T11:37:50;2.80;99.90
49242;DHT22;35079;52.704;13.814;2023-01-23T11:40:19;2.80;99.90
49242;DHT22;35079;52.704;13.814;2023-01-23T11:42:45;2.60;99.90
49242;DHT22;35079;52.704;13.814;2023-01-23T11:50:51;2.80;99.90
49242;DHT22;35079;52.704;13.814;2023-01-23T11:56:19;2.80;99.90
49242;DHT22;35079;52.704;13.814;2023-01-23T11:58:55;2.80;99.90
49242;DHT22;35079;52.704;13.814;2023-01-23T12:04:27;2.80;99.90
49242;DHT22;35079;52.704;13.814;2023-01-23T12:26:14;2.70;99.90
49242;DHT22;35079;52.704;13.814;2023-01-23T12:34:07;2.80;99.90
49242;DHT22;35079;52.704;13.814;2023-01-23T12:36:56;2.90;99.90
49242;DHT22;35079;52.704;13.814;2023-01-23T12:40:04;2.90;99.90
49242;DHT22;35079;52.704;13.814;2023-01-23T12:42:42;2.90;99.90
49242;DHT22;35079;52.704;13.814;2023-01-23T12:45:29;2.90;99.90
49242;DHT22;35079;52.704;13.814;2023-01-23T12:48:05;2.70;99.90
49242;DHT22;35079;52.704;13.814;2023-01-23T12:53:08;2.80;99.90
49242;DHT22;35079;52.704;13.814;2023-01-23T12:55:52;2.90;99.90
49242;DHT22;35079;52.704;13.814;2023-01-23T12:58:21;3.00;99.90
49242;DHT22;35079;52.704;13.814;2023-01-23T13:09:37;2.90;99.90
49242;DHT22;35079;52.704;13.814;2023-01-23T13:12:20;3.00;99.90
49242;DHT22;35079;52.704;13.814;2023-01-23T13:14:49;2.90;99.90
49242;DHT22;35079;52.704;13.814;2023-01-23T13:17:36;2.90;99.90
49242;DHT22;35079;52.704;13.814;2023-01-23T13:20:34;2.80;99.90
49242;DHT22;35079;52.704;13.814;2023-01-23T13:28:44;2.90;99.90
49242;DHT22;35079;52.704;13.814;2023-01-23T13:33:50;3.00;99.90
49242;DHT22;35079;52.704;13.814;2023-01-23T13:36:31;2.90;99.90
49242;DHT22;35079;52.704;13.814;2023-01-23T13:41:31;2.80;99.90
49242;DHT22;35079;52.704;13.814;2023-01-23T13:44:03;2.90;99.90
49242;DHT22;35079;52.704;13.814;2023-01-23T13:46:53;2.70;99.90
49242;DHT22;35079;52.704;13.814;2023-01-23T13:52:20;3.00;99.90
49242;DHT22;35079;52.704;13.814;2023-01-23T13:55:21;2.90;99.90
49242;DHT22;35079;52.704;13.814;2023-01-23T13:58:15;2.90;99.90
49242;DHT22;35079;52.704;13.814;2023-01-23T14:00:49;2.80;99.90
49242;DHT22;35079;52.704;13.814;2023-01-23T14:03:36;2.60;99.90
49242;DHT22;35079;52.704;13.814;2023-01-23T14:06:31;2.70;99.90
49242;DHT22;35079;52.704;13.814;2023-01-23T14:08:57;2.70;99.90
49242;DHT22;35079;52.704;13.814;2023-01-23T14:11:23;2.80;99.90
49242;DHT22;35079;52.704;13.814;2023-01-23T14:13:50;2.60;99.90
49242;DHT22;35079;52.704;13.814;2023-01-23T14:16:16;2.70;99.90
49242;DHT22;35079;52.704;13.814;2023-01-23T14:18:54;2.70;99.90
49242;DHT22;35079;52.704;13.814;2023-01-23T14:21:27;2.50;99.90
49242;DHT22;35079;52.704;13.814;2023-01-23T14:23:56;2.50;99.90
49242;DHT22;35079;52.704;13.814;2023-01-23T14:26:32;2.60;99.90
49242;DHT22;35079;52.704;13.814;2023-01-23T14:29:04;2.60;99.90
49242;DHT22;35079;52.704;13.814;2023-01-23T14:31:40;2.60;99.90
49242;DHT22;35079;52.704;13.814;2023-01-23T14:34:14;2.60;99.90
49242;DHT22;35079;52.704;13.814;2023-01-23T14:39:25;2.40;99.90
49242;DHT22;35079;52.704;13.814;2023-01-23T14:41:54;2.50;99.90
49242;DHT22;35079;52.704;13.814;2023-01-23T14:47:01;2.50;99.90
49242;DHT22;35079;52.704;13.814;2023-01-23T14:49:33;2.70;99.90
49242;DHT22;35079;52.704;13.814;2023-01-23T14:52:04;2.50;99.90
49242;DHT22;35079;52.704;13.814;2023-01-23T14:54:31;2.40;99.90
49242;DHT22;35079;52.704;13.814;2023-01-23T14:56:57;2.40;99.90
49242;DHT22;35079;52.704;13.814;2023-01-23T14:59:36;2.50;99.90
49242;DHT22;35079;52.704;13.814;2023-01-23T15:13:22;2.30;99.90
49242;DHT22;35079;52.704;13.814;2023-01-23T15:15:58;2.30;99.90
49242;DHT22;35079;52.704;13.814;2023-01-23T15:18:28;2.40;99.90
49242;DHT22;35079;52.704;13.814;2023-01-23T15:20:59;2.30;99.90
49242;DHT22;35079;52.704;13.814;2023-01-23T15:23:32;2.20;99.90
49242;DHT22;35079;52.704;13.814;2023-01-23T15:28:49;2.30;99.90
49242;DHT22;35079;52.704;13.814;2023-01-23T15:33:52;2.10;99.90
49242;DHT22;35079;52.704;13.814;2023-01-23T15:36:28;2.30;99.90
49242;DHT22;35079;52.704;13.814;2023-01-23T15:38:56;2.20;99.90
49242;DHT22;35079;52.704;13.814;2023-01-23T15:41:41;2.00;99.90
49242;DHT22;35079;52.704;13.814;2023-01-23T15:44:16;2.30;99.90
49242;DHT22;35079;52.704;13.814;2023-01-23T15:46:42;2.20;99.90
49242;DHT22;35079;52.704;13.814;2023-01-23T15:49:08;2.10;99.90
49242;DHT22;35079;52.704;13.814;2023-01-23T15:51:34;2.30;99.90
49242;DHT22;35079;52.704;13.814;2023-01-23T15:54:01;2.20;99.90
49242;DHT22;35079;52.704;13.814;2023-01-23T15:56:30;2.10;99.90
49242;DHT22;35079;52.704;13.814;2023-01-23T15:58:56;2.00;99.90
49242;DHT22;35079;52.704;13.814;2023-01-23T16:01:23;2.10;99.90
49242;DHT22;35079;52.704;13.814;2023-01-23T16:03:49;2.00;99.90
49242;DHT22;35079;52.704;13.814;2023-01-23T16:06:18;2.10;99.90
49242;DHT22;35079;52.704;13.814;2023-01-23T16:08:46;2.00;99.90
49242;DHT22;35079;52.704;13.814;2023-01-23T16:11:12;1.80;99.90
49242;DHT22;35079;52.704;13.814;2023-01-23T16:13:38;2.00;99.90
49242;DHT22;35079;52.704;13.814;2023-01-23T16:16:13;1.90;99.90
49242;DHT22;35079;52.704;13.814;2023-01-23T16:18:38;2.00;99.90
49242;DHT22;35079;52.704;13.814;2023-01-23T16:21:04;1.90;99.90
49242;DHT22;35079;52.704;13.814;2023-01-23T16:23:30;2.00;99.90
49242;DHT22;35079;52.704;13.814;2023-01-23T16:25:56;2.00;99.90
49242;DHT22;35079;52.704;13.814;2023-01-23T16:28:23;1.90;99.90
49242;DHT22;35079;52.704;13.814;2023-01-23T16:30:51;2.10;99.90
49242;DHT22;35079;52.704;13.814;2023-01-23T16:33:18;2.10;99.90
49242;DHT22;35079;52.704;13.814;2023-01-23T16:35:44;2.00;99.90
49242;DHT22;35079;52.704;13.814;2023-01-23T16:38:31;1.90;99.90
49242;DHT22;35079;52.704;13.814;2023-01-23T16:40:57;2.10;99.90
49242;DHT22;35079;52.704;13.814;2023-01-23T16:43:24;1.80;99.90
49242;DHT22;35079;52.704;13.814;2023-01-23T16:45:50;1.90;99.90
49242;DHT22;35079;52.704;13.814;2023-01-23T16:48:18;1.90;99.90
49242;DHT22;35079;52.704;13.814;2023-01-23T16:50:46;2.00;99.90
49242;DHT22;35079;52.704;13.814;2023-01-23T16:53:26;1.80;99.90
49242;DHT22;35079;52.704;13.814;2023-01-23T16:55:53;1.80;99.90
49242;DHT22;35079;52.704;13.814;2023-01-23T16:58:27;1.80;99.90
49242;DHT22;35079;52.704;13.814;2023-01-23T17:00:59;1.90;99.90
49242;DHT22;35079;52.704;13.814;2023-01-23T17:03:27;2.00;99.90
49242;DHT22;35079;52.704;13.814;2023-01-23T17:05:53;1.90;99.90
49242;DHT22;35079;52.704;13.814;2023-01-23T17:08:21;1.80;99.90
49242;DHT22;35079;52.704;13.814;2023-01-23T17:10:49;2.00;99.90
49242;DHT22;35079;52.704;13.814;2023-01-23T17:13:17;2.00;99.90
49242;DHT22;35079;52.704;13.814;2023-01-23T17:15:44;2.00;99.90
49242;DHT22;35079;52.704;13.814;2023-01-23T17:18:28;2.00;99.90
49242;DHT22;35079;52.704;13.814;2023-01-23T17:20:55;1.90;99.90
49242;DHT22;35079;52.704;13.814;2023-01-23T17:23:22;1.90;99.90
49242;DHT22;35079;52.704;13.814;2023-01-23T17:25:48;2.00;99.90
49242;DHT22;35079;52.704;13.814;2023-01-23T17:28:16;2.00;99.90
49242;DHT22;35079;52.704;13.814;2023-01-23T17:30:42;1.80;99.90
49242;DHT22;35079;52.704;13.814;2023-01-23T17:33:20;2.00;99.90